sensor_id;sensor_type;location;lat;lon;timestamp;temperature;humidity
13346;DHT22;6742;48.036;15.780;2022-07-04T00:01:46;19.70;99.90
13346;DHT22;6742;48.036;15.780;2022-07-04T00:04:14;19.70;99.90
13346;DHT22;6742;48.036;15.780;2022-07-04T00:06:41;19.60;99.90
13346;DHT22;6742;48.036;15.780;2022-07-04T00:09:08;19.50;99.90
13346;DHT22;6742;48.036;15.780;2022-07-04T00:11:35;19.50;99.90
13346;DHT22;6742;48.036;15.780;2022-07-04T00:14:05;19.40;99.90
13346;DHT22;6742;48.036;15.780;2022-07-04T00:16:32;19.40;99.90
13346;DHT22;6742;48.036;15.780;2022-07-04T00:18:59;19.40;99.90
13346;DHT22;6742;48.036;15.780;2022-07-04T00:21:31;19.40;99.90
13346;DHT22;6742;48.036;15.780;2022-07-04T00:23:58;19.30;99.90
13346;DHT22;6742;48.036;15.780;2022-07-04T00:26:25;19.30;99.90
13346;DHT22;6742;48.036;15.780;2022-07-04T00:28:53;19.20;99.90
13346;DHT22;6742;48.036;15.780;2022-07-04T00:31:20;19.20;99.90
13346;DHT22;6742;48.036;15.780;2022-07-04T00:33:47;19.30;99.90
13346;DHT22;6742;48.036;15.780;2022-07-04T00:36:14;19.30;99.90
13346;DHT22;6742;48.036;15.780;2022-07-04T00:38:42;19.30;99.90
13346;DHT22;6742;48.036;15.780;2022-07-04T00:41:09;19.20;99.90
13346;DHT22;6742;48.036;15.780;2022-07-04T00:43:36;19.10;99.90
13346;DHT22;6742;48.036;15.780;2022-07-04T00:46:03;19.10;99.90
13346;DHT22;6742;48.036;15.780;2022-07-04T00:48:31;19.20;99.90
13346;DHT22;6742;48.036;15.780;2022-07-04T00:50:58;19.20;99.90
13346;DHT22;6742;48.036;15.780;2022-07-04T00:53:26;19.20;99.90
13346;DHT22;6742;48.036;15.780;2022-07-04T00:55:54;19.20;99.90
13346;DHT22;6742;48.036;15.780;2022-07-04T00:58:22;19.20;99.90
13346;DHT22;6742;48.036;15.780;2022-07-04T01:00:50;19.20;99.90
13346;DHT22;6742;48.036;15.780;2022-07-04T01:03:17;19.10;99.90
13346;DHT22;6742;48.036;15.780;2022-07-04T01:05:44;19.10;99.90
13346;DHT22;6742;48.036;15.780;2022-07-04T01:08:12;19.10;99.90
13346;DHT22;6742;48.036;15.780;2022-07-04T01:10:39;19.10;99.90
13346;DHT22;6742;48.036;15.780;2022-07-04T01:13:07;19.00;99.90
13346;DHT22;6742;48.036;15.780;2022-07-04T01:15:34;19.00;99.90
13346;DHT22;6742;48.036;15.780;2022-07-04T01:18:01;18.90;99.90
13346;DHT22;6742;48.036;15.780;2022-07-04T01:20:35;18.90;99.90
13346;DHT22;6742;48.036;15.780;2022-07-04T01:23:02;18.80;99.90
13346;DHT22;6742;48.036;15.780;2022-07-04T01:25:30;18.80;99.90
13346;DHT22;6742;48.036;15.780;2022-07-04T01:27:57;18.70;99.90
13346;DHT22;6742;48.036;15.780;2022-07-04T01:30:24;18.60;99.90
13346;DHT22;6742;48.036;15.780;2022-07-04T01:32:52;18.60;99.90
13346;DHT22;6742;48.036;15.780;2022-07-04T01:35:19;18.50;99.90
13346;DHT22;6742;48.036;15.780;2022-07-04T01:37:47;18.50;99.90
13346;DHT22;6742;48.036;15.780;2022-07-04T01:40:14;18.50;99.90
13346;DHT22;6742;48.036;15.780;2022-07-04T01:42:41;18.50;99.90
13346;DHT22;6742;48.036;15.780;2022-07-04T01:45:10;18.50;99.90
13346;DHT22;6742;48.036;15.780;2022-07-04T01:47:38;18.50;99.90
13346;DHT22;6742;48.036;15.780;2022-07-04T01:50:07;18.60;99.90
13346;DHT22;6742;48.036;15.780;2022-07-04T01:52:35;18.60;99.90
13346;DHT22;6742;48.036;15.780;2022-07-04T01:55:05;18.60;99.90
13346;DHT22;6742;48.036;15.780;2022-07-04T01:57:32;18.60;99.90
13346;DHT22;6742;48.036;15.780;2022-07-04T01:59:59;18.60;99.90
13346;DHT22;6742;48.036;15.780;2022-07-04T02:02:44;18.50;99.90
13346;DHT22;6742;48.036;15.780;2022-07-04T02:05:14;18.50;99.90
13346;DHT22;6742;48.036;15.780;2022-07-04T02:07:42;18.50;99.90
13346;DHT22;6742;48.036;15.780;2022-07-04T02:10:11;18.40;99.90
13346;DHT22;6742;48.036;15.780;2022-07-04T02:12:38;18.40;99.90
13346;DHT22;6742;48.036;15.780;2022-07-04T02:15:22;18.40;99.90
13346;DHT22;6742;48.036;15.780;2022-07-04T02:17:49;18.40;99.90
13346;DHT22;6742;48.036;15.780;2022-07-04T02:20:16;18.40;99.90
13346;DHT22;6742;48.036;15.780;2022-07-04T02:22:43;18.40;99.90
13346;DHT22;6742;48.036;15.780;2022-07-04T02:25:11;18.30;99.90
13346;DHT22;6742;48.036;15.780;2022-07-04T02:27:38;18.30;99.90
13346;DHT22;6742;48.036;15.780;2022-07-04T02:30:06;18.30;99.90
13346;DHT22;6742;48.036;15.780;2022-07-04T02:32:33;18.20;99.90
13346;DHT22;6742;48.036;15.780;2022-07-04T02:35:01;18.20;99.90
13346;DHT22;6742;48.036;15.780;2022-07-04T02:37:28;18.20;99.90
13346;DHT22;6742;48.036;15.780;2022-07-04T02:39:57;18.20;99.90
13346;DHT22;6742;48.036;15.780;2022-07-04T02:42:28;18.20;99.90
13346;DHT22;6742;48.036;15.780;2022-07-04T02:44:56;18.10;99.90
13346;DHT22;6742;48.036;15.780;2022-07-04T02:47:23;18.10;99.90
13346;DHT22;6742;48.036;15.780;2022-07-04T02:49:50;18.10;99.90
13346;DHT22;6742;48.036;15.780;2022-07-04T02:52:20;18.10;99.90
13346;DHT22;6742;48.036;15.780;2022-07-04T02:54:47;18.00;99.90
13346;DHT22;6742;48.036;15.780;2022-07-04T02:57:15;18.00;99.90
13346;DHT22;6742;48.036;15.780;2022-07-04T02:59:44;17.90;99.90
13346;DHT22;6742;48.036;15.780;2022-07-04T03:02:12;17.90;99.90
13346;DHT22;6742;48.036;15.780;2022-07-04T03:04:39;17.90;99.90
13346;DHT22;6742;48.036;15.780;2022-07-04T03:07:09;18.00;99.90
13346;DHT22;6742;48.036;15.780;2022-07-04T03:09:37;17.90;99.90
13346;DHT22;6742;48.036;15.780;2022-07-04T03:12:05;17.90;99.90
13346;DHT22;6742;48.036;15.780;2022-07-04T03:14:32;17.80;99.90
13346;DHT22;6742;48.036;15.780;2022-07-04T03:17:03;17.90;99.90
13346;DHT22;6742;48.036;15.780;2022-07-04T03:19:30;17.90;99.90
13346;DHT22;6742;48.036;15.780;2022-07-04T03:21:56;17.90;99.90
13346;DHT22;6742;48.036;15.780;2022-07-04T03:24:23;18.00;99.90
13346;DHT22;6742;48.036;15.780;2022-07-04T03:26:50;18.00;99.90
13346;DHT22;6742;48.036;15.780;2022-07-04T03:29:17;18.00;99.90
13346;DHT22;6742;48.036;15.780;2022-07-04T03:31:44;18.00;99.90
13346;DHT22;6742;48.036;15.780;2022-07-04T03:34:13;18.00;99.90
13346;DHT22;6742;48.036;15.780;2022-07-04T03:36:40;17.90;99.90
13346;DHT22;6742;48.036;15.780;2022-07-04T03:39:07;17.90;99.90
13346;DHT22;6742;48.036;15.780;2022-07-04T03:41:34;17.90;99.90
13346;DHT22;6742;48.036;15.780;2022-07-04T03:44:01;17.90;99.90
13346;DHT22;6742;48.036;15.780;2022-07-04T03:46:28;17.80;99.90
13346;DHT22;6742;48.036;15.780;2022-07-04T03:48:55;17.90;99.90
13346;DHT22;6742;48.036;15.780;2022-07-04T03:51:26;18.00;99.90
13346;DHT22;6742;48.036;15.780;2022-07-04T03:53:53;18.00;99.90
13346;DHT22;6742;48.036;15.780;2022-07-04T03:56:20;18.00;99.90
13346;DHT22;6742;48.036;15.780;2022-07-04T03:58:47;18.00;99.90
13346;DHT22;6742;48.036;15.780;2022-07-04T04:01:15;17.90;99.90
13346;DHT22;6742;48.036;15.780;2022-07-04T04:03:43;17.90;99.90
13346;DHT22;6742;48.036;15.780;2022-07-04T04:06:29;18.00;99.90
13346;DHT22;6742;48.036;15.780;2022-07-04T04:08:56;18.00;99.90
13346;DHT22;6742;48.036;15.780;2022-07-04T04:11:23;18.10;99.90
13346;DHT22;6742;48.036;15.780;2022-07-04T04:13:50;18.10;99.90
13346;DHT22;6742;48.036;15.780;2022-07-04T04:16:17;18.10;99.90
13346;DHT22;6742;48.036;15.780;2022-07-04T04:18:47;18.20;99.90
13346;DHT22;6742;48.036;15.780;2022-07-04T04:21:14;18.30;99.90
13346;DHT22;6742;48.036;15.780;2022-07-04T04:23:42;18.30;99.90
13346;DHT22;6742;48.036;15.780;2022-07-04T04:26:09;18.40;99.90
13346;DHT22;6742;48.036;15.780;2022-07-04T04:28:37;18.40;99.90
13346;DHT22;6742;48.036;15.780;2022-07-04T04:31:03;18.50;99.90
13346;DHT22;6742;48.036;15.780;2022-07-04T04:33:34;18.50;99.90
13346;DHT22;6742;48.036;15.780;2022-07-04T04:36:01;18.60;99.90
13346;DHT22;6742;48.036;15.780;2022-07-04T04:38:29;18.60;99.90
13346;DHT22;6742;48.036;15.780;2022-07-04T04:40:57;18.60;99.90
13346;DHT22;6742;48.036;15.780;2022-07-04T04:43:24;18.60;99.90
13346;DHT22;6742;48.036;15.780;2022-07-04T04:45:51;18.70;99.90
13346;DHT22;6742;48.036;15.780;2022-07-04T04:48:18;18.70;99.90
13346;DHT22;6742;48.036;15.780;2022-07-04T04:50:45;18.70;99.90
13346;DHT22;6742;48.036;15.780;2022-07-04T04:53:12;18.80;99.90
13346;DHT22;6742;48.036;15.780;2022-07-04T04:55:39;18.80;99.90
13346;DHT22;6742;48.036;15.780;2022-07-04T04:58:08;18.80;99.90
13346;DHT22;6742;48.036;15.780;2022-07-04T05:00:35;18.90;99.90
13346;DHT22;6742;48.036;15.780;2022-07-04T05:03:02;18.90;99.90
13346;DHT22;6742;48.036;15.780;2022-07-04T05:05:29;18.90;99.90
13346;DHT22;6742;48.036;15.780;2022-07-04T05:07:56;18.90;99.90
13346;DHT22;6742;48.036;15.780;2022-07-04T05:10:23;18.90;99.90
13346;DHT22;6742;48.036;15.780;2022-07-04T05:12:50;18.90;99.90
13346;DHT22;6742;48.036;15.780;2022-07-04T05:15:18;18.90;99.90
13346;DHT22;6742;48.036;15.780;2022-07-04T05:17:45;19.00;99.90
13346;DHT22;6742;48.036;15.780;2022-07-04T05:20:13;19.00;99.90
13346;DHT22;6742;48.036;15.780;2022-07-04T05:22:40;19.00;99.90
13346;DHT22;6742;48.036;15.780;2022-07-04T05:25:07;19.10;99.90
13346;DHT22;6742;48.036;15.780;2022-07-04T05:27:35;19.10;99.90
13346;DHT22;6742;48.036;15.780;2022-07-04T05:30:03;19.30;99.90
13346;DHT22;6742;48.036;15.780;2022-07-04T05:32:32;19.30;99.90
13346;DHT22;6742;48.036;15.780;2022-07-04T05:34:59;19.40;99.90
13346;DHT22;6742;48.036;15.780;2022-07-04T05:37:26;19.50;99.90
13346;DHT22;6742;48.036;15.780;2022-07-04T05:39:53;19.50;99.90
13346;DHT22;6742;48.036;15.780;2022-07-04T05:42:20;19.50;99.90
13346;DHT22;6742;48.036;15.780;2022-07-04T05:44:47;19.50;99.90
13346;DHT22;6742;48.036;15.780;2022-07-04T05:47:14;19.50;99.90
13346;DHT22;6742;48.036;15.780;2022-07-04T05:49:43;19.50;99.90
13346;DHT22;6742;48.036;15.780;2022-07-04T05:52:10;19.50;99.90
13346;DHT22;6742;48.036;15.780;2022-07-04T05:54:37;19.50;99.90
13346;DHT22;6742;48.036;15.780;2022-07-04T05:57:04;19.50;99.90
13346;DHT22;6742;48.036;15.780;2022-07-04T05:59:31;19.60;99.90
13346;DHT22;6742;48.036;15.780;2022-07-04T06:01:58;19.60;99.90
13346;DHT22;6742;48.036;15.780;2022-07-04T06:04:25;19.80;99.90
13346;DHT22;6742;48.036;15.780;2022-07-04T06:06:54;20.20;99.90
13346;DHT22;6742;48.036;15.780;2022-07-04T06:09:21;20.40;99.90
13346;DHT22;6742;48.036;15.780;2022-07-04T06:11:48;20.80;99.90
13346;DHT22;6742;48.036;15.780;2022-07-04T06:14:15;21.20;99.90
13346;DHT22;6742;48.036;15.780;2022-07-04T06:16:42;21.60;99.90
13346;DHT22;6742;48.036;15.780;2022-07-04T06:19:09;22.00;99.90
13346;DHT22;6742;48.036;15.780;2022-07-04T06:21:36;22.20;99.90
13346;DHT22;6742;48.036;15.780;2022-07-04T06:24:05;22.40;99.90
13346;DHT22;6742;48.036;15.780;2022-07-04T06:26:32;22.50;99.90
13346;DHT22;6742;48.036;15.780;2022-07-04T06:28:59;22.70;99.90
13346;DHT22;6742;48.036;15.780;2022-07-04T06:31:26;23.00;99.90
13346;DHT22;6742;48.036;15.780;2022-07-04T06:33:53;23.30;99.90
13346;DHT22;6742;48.036;15.780;2022-07-04T06:36:37;23.30;99.90
13346;DHT22;6742;48.036;15.780;2022-07-04T06:39:05;23.20;99.90
13346;DHT22;6742;48.036;15.780;2022-07-04T06:41:32;23.30;99.90
13346;DHT22;6742;48.036;15.780;2022-07-04T06:43:59;23.50;99.90
13346;DHT22;6742;48.036;15.780;2022-07-04T06:46:29;23.40;99.90
13346;DHT22;6742;48.036;15.780;2022-07-04T06:49:05;23.30;99.90
13346;DHT22;6742;48.036;15.780;2022-07-04T06:51:32;23.10;99.90
13346;DHT22;6742;48.036;15.780;2022-07-04T06:53:59;22.90;99.90
13346;DHT22;6742;48.036;15.780;2022-07-04T06:56:28;22.90;99.90
13346;DHT22;6742;48.036;15.780;2022-07-04T06:58:58;22.90;99.90
13346;DHT22;6742;48.036;15.780;2022-07-04T07:01:28;22.90;99.90
13346;DHT22;6742;48.036;15.780;2022-07-04T07:03:55;22.90;99.90
13346;DHT22;6742;48.036;15.780;2022-07-04T07:06:22;23.00;99.90
13346;DHT22;6742;48.036;15.780;2022-07-04T07:08:50;22.90;99.90
13346;DHT22;6742;48.036;15.780;2022-07-04T07:11:17;22.80;99.90
13346;DHT22;6742;48.036;15.780;2022-07-04T07:13:48;22.80;99.90
13346;DHT22;6742;48.036;15.780;2022-07-04T07:16:16;22.80;99.90
13346;DHT22;6742;48.036;15.780;2022-07-04T07:18:44;22.90;99.90
13346;DHT22;6742;48.036;15.780;2022-07-04T07:21:12;23.10;99.90
13346;DHT22;6742;48.036;15.780;2022-07-04T07:23:39;23.30;99.90
13346;DHT22;6742;48.036;15.780;2022-07-04T07:26:09;23.90;99.90
13346;DHT22;6742;48.036;15.780;2022-07-04T07:28:37;24.30;99.90
13346;DHT22;6742;48.036;15.780;2022-07-04T07:31:05;24.40;99.90
13346;DHT22;6742;48.036;15.780;2022-07-04T07:33:32;24.50;99.90
13346;DHT22;6742;48.036;15.780;2022-07-04T07:35:59;24.70;99.90
13346;DHT22;6742;48.036;15.780;2022-07-04T07:38:29;24.90;99.90
13346;DHT22;6742;48.036;15.780;2022-07-04T07:40:56;24.90;99.90
13346;DHT22;6742;48.036;15.780;2022-07-04T07:43:26;24.90;99.90
13346;DHT22;6742;48.036;15.780;2022-07-04T07:45:54;24.90;99.90
13346;DHT22;6742;48.036;15.780;2022-07-04T07:48:23;24.90;99.90
13346;DHT22;6742;48.036;15.780;2022-07-04T07:50:50;24.70;99.90
13346;DHT22;6742;48.036;15.780;2022-07-04T07:53:17;24.70;99.90
13346;DHT22;6742;48.036;15.780;2022-07-04T07:55:44;24.60;99.90
13346;DHT22;6742;48.036;15.780;2022-07-04T07:58:11;24.60;99.90
13346;DHT22;6742;48.036;15.780;2022-07-04T08:00:38;24.60;99.90
13346;DHT22;6742;48.036;15.780;2022-07-04T08:03:05;24.70;99.90
13346;DHT22;6742;48.036;15.780;2022-07-04T08:05:54;24.60;99.90
13346;DHT22;6742;48.036;15.780;2022-07-04T08:08:21;24.60;99.90
13346;DHT22;6742;48.036;15.780;2022-07-04T08:10:49;24.50;99.90
13346;DHT22;6742;48.036;15.780;2022-07-04T08:13:16;24.30;99.90
13346;DHT22;6742;48.036;15.780;2022-07-04T08:15:43;24.20;99.90
13346;DHT22;6742;48.036;15.780;2022-07-04T08:18:10;24.20;99.90
13346;DHT22;6742;48.036;15.780;2022-07-04T08:20:38;24.10;99.90
13346;DHT22;6742;48.036;15.780;2022-07-04T08:23:06;23.80;99.90
13346;DHT22;6742;48.036;15.780;2022-07-04T08:25:33;23.80;99.90
13346;DHT22;6742;48.036;15.780;2022-07-04T08:28:00;23.80;99.90
13346;DHT22;6742;48.036;15.780;2022-07-04T08:30:30;23.70;99.90
13346;DHT22;6742;48.036;15.780;2022-07-04T08:32:57;23.70;99.90
13346;DHT22;6742;48.036;15.780;2022-07-04T08:35:24;23.60;99.90
13346;DHT22;6742;48.036;15.780;2022-07-04T08:37:54;23.60;99.90
13346;DHT22;6742;48.036;15.780;2022-07-04T08:40:27;23.50;99.90
13346;DHT22;6742;48.036;15.780;2022-07-04T08:42:55;23.50;99.90
13346;DHT22;6742;48.036;15.780;2022-07-04T08:45:26;23.50;99.90
13346;DHT22;6742;48.036;15.780;2022-07-04T08:47:59;23.40;99.90
13346;DHT22;6742;48.036;15.780;2022-07-04T08:50:30;23.40;99.90
13346;DHT22;6742;48.036;15.780;2022-07-04T08:53:00;23.40;99.90
13346;DHT22;6742;48.036;15.780;2022-07-04T08:55:30;23.40;99.90
13346;DHT22;6742;48.036;15.780;2022-07-04T08:58:17;23.40;99.90
13346;DHT22;6742;48.036;15.780;2022-07-04T09:00:56;23.30;99.90
13346;DHT22;6742;48.036;15.780;2022-07-04T09:03:23;23.20;99.90
13346;DHT22;6742;48.036;15.780;2022-07-04T09:05:51;23.20;99.90
13346;DHT22;6742;48.036;15.780;2022-07-04T09:08:18;23.20;99.90
13346;DHT22;6742;48.036;15.780;2022-07-04T09:10:46;23.10;99.90
13346;DHT22;6742;48.036;15.780;2022-07-04T09:13:14;23.00;99.90
13346;DHT22;6742;48.036;15.780;2022-07-04T09:15:42;23.00;99.90
13346;DHT22;6742;48.036;15.780;2022-07-04T09:18:20;23.00;99.90
13346;DHT22;6742;48.036;15.780;2022-07-04T09:20:47;22.90;99.90
13346;DHT22;6742;48.036;15.780;2022-07-04T09:23:17;23.00;99.90
13346;DHT22;6742;48.036;15.780;2022-07-04T09:25:46;23.00;99.90
13346;DHT22;6742;48.036;15.780;2022-07-04T09:28:26;23.00;99.90
13346;DHT22;6742;48.036;15.780;2022-07-04T09:30:54;23.00;99.90
13346;DHT22;6742;48.036;15.780;2022-07-04T09:33:21;23.20;99.90
13346;DHT22;6742;48.036;15.780;2022-07-04T09:35:49;23.30;99.90
13346;DHT22;6742;48.036;15.780;2022-07-04T09:38:22;23.40;99.90
13346;DHT22;6742;48.036;15.780;2022-07-04T09:40:53;23.60;99.90
13346;DHT22;6742;48.036;15.780;2022-07-04T09:43:37;23.80;99.90
13346;DHT22;6742;48.036;15.780;2022-07-04T09:46:24;24.00;99.90
13346;DHT22;6742;48.036;15.780;2022-07-04T09:48:51;24.20;99.90
13346;DHT22;6742;48.036;15.780;2022-07-04T09:51:39;24.40;99.90
13346;DHT22;6742;48.036;15.780;2022-07-04T09:54:17;24.80;99.90
13346;DHT22;6742;48.036;15.780;2022-07-04T09:56:47;25.20;99.90
13346;DHT22;6742;48.036;15.780;2022-07-04T09:59:14;25.60;99.90
13346;DHT22;6742;48.036;15.780;2022-07-04T10:01:41;26.00;99.90
13346;DHT22;6742;48.036;15.780;2022-07-04T10:04:08;26.30;99.90
13346;DHT22;6742;48.036;15.780;2022-07-04T10:06:38;26.50;99.90
13346;DHT22;6742;48.036;15.780;2022-07-04T10:09:10;26.90;99.90
13346;DHT22;6742;48.036;15.780;2022-07-04T10:11:38;27.20;99.90
13346;DHT22;6742;48.036;15.780;2022-07-04T10:14:08;27.50;99.90
13346;DHT22;6742;48.036;15.780;2022-07-04T10:16:36;27.80;99.90
13346;DHT22;6742;48.036;15.780;2022-07-04T10:19:04;28.10;99.90
13346;DHT22;6742;48.036;15.780;2022-07-04T10:21:31;28.40;99.90
13346;DHT22;6742;48.036;15.780;2022-07-04T10:24:01;28.70;99.30
13346;DHT22;6742;48.036;15.780;2022-07-04T10:26:30;29.00;98.30
13346;DHT22;6742;48.036;15.780;2022-07-04T10:28:58;29.20;97.10
13346;DHT22;6742;48.036;15.780;2022-07-04T10:31:29;29.40;98.90
13346;DHT22;6742;48.036;15.780;2022-07-04T10:33:58;29.50;97.30
13346;DHT22;6742;48.036;15.780;2022-07-04T10:36:26;29.60;96.00
13346;DHT22;6742;48.036;15.780;2022-07-04T10:38:56;29.90;95.60
13346;DHT22;6742;48.036;15.780;2022-07-04T10:41:26;30.10;98.00
13346;DHT22;6742;48.036;15.780;2022-07-04T10:43:58;30.30;97.20
13346;DHT22;6742;48.036;15.780;2022-07-04T10:46:35;30.30;95.80
13346;DHT22;6742;48.036;15.780;2022-07-04T10:49:04;30.10;95.90
13346;DHT22;6742;48.036;15.780;2022-07-04T10:51:40;30.40;96.20
13346;DHT22;6742;48.036;15.780;2022-07-04T10:54:11;30.60;96.40
13346;DHT22;6742;48.036;15.780;2022-07-04T10:56:43;30.70;95.10
13346;DHT22;6742;48.036;15.780;2022-07-04T10:59:13;30.50;96.10
13346;DHT22;6742;48.036;15.780;2022-07-04T11:02:21;30.50;95.30
13346;DHT22;6742;48.036;15.780;2022-07-04T11:04:59;30.60;94.40
13346;DHT22;6742;48.036;15.780;2022-07-04T11:07:55;30.70;94.80
13346;DHT22;6742;48.036;15.780;2022-07-04T11:10:22;30.80;95.40
13346;DHT22;6742;48.036;15.780;2022-07-04T11:13:03;30.90;93.60
13346;DHT22;6742;48.036;15.780;2022-07-04T11:16:00;30.80;94.40
13346;DHT22;6742;48.036;15.780;2022-07-04T11:18:29;30.60;94.60
13346;DHT22;6742;48.036;15.780;2022-07-04T11:20:57;30.50;95.90
13346;DHT22;6742;48.036;15.780;2022-07-04T11:23:24;30.50;95.80
13346;DHT22;6742;48.036;15.780;2022-07-04T11:25:51;30.40;94.80
13346;DHT22;6742;48.036;15.780;2022-07-04T11:28:22;30.20;96.30
13346;DHT22;6742;48.036;15.780;2022-07-04T11:30:50;30.30;95.30
13346;DHT22;6742;48.036;15.780;2022-07-04T11:33:18;30.20;96.60
13346;DHT22;6742;48.036;15.780;2022-07-04T11:38:47;30.20;96.10
13346;DHT22;6742;48.036;15.780;2022-07-04T11:41:15;30.30;96.50
13346;DHT22;6742;48.036;15.780;2022-07-04T11:44:03;30.50;96.80
13346;DHT22;6742;48.036;15.780;2022-07-04T11:46:48;30.50;96.40
13346;DHT22;6742;48.036;15.780;2022-07-04T11:49:15;30.50;96.70
13346;DHT22;6742;48.036;15.780;2022-07-04T11:51:43;30.40;96.40
13346;DHT22;6742;48.036;15.780;2022-07-04T11:54:12;30.50;97.10
13346;DHT22;6742;48.036;15.780;2022-07-04T11:56:39;30.30;97.10
13346;DHT22;6742;48.036;15.780;2022-07-04T11:59:11;30.30;98.30
13346;DHT22;6742;48.036;15.780;2022-07-04T12:01:39;30.40;97.30
13346;DHT22;6742;48.036;15.780;2022-07-04T12:04:16;30.20;97.80
13346;DHT22;6742;48.036;15.780;2022-07-04T12:06:45;30.10;95.70
13346;DHT22;6742;48.036;15.780;2022-07-04T12:09:14;30.20;95.90
13346;DHT22;6742;48.036;15.780;2022-07-04T12:11:56;30.30;96.20
13346;DHT22;6742;48.036;15.780;2022-07-04T12:14:24;30.40;95.20
13346;DHT22;6742;48.036;15.780;2022-07-04T12:17:10;30.50;96.30
13346;DHT22;6742;48.036;15.780;2022-07-04T12:19:37;30.40;94.40
13346;DHT22;6742;48.036;15.780;2022-07-04T12:22:04;30.50;95.20
13346;DHT22;6742;48.036;15.780;2022-07-04T12:24:43;30.50;93.00
13346;DHT22;6742;48.036;15.780;2022-07-04T12:27:17;30.50;92.70
13346;DHT22;6742;48.036;15.780;2022-07-04T12:29:48;30.50;93.10
13346;DHT22;6742;48.036;15.780;2022-07-04T12:32:16;30.60;93.50
13346;DHT22;6742;48.036;15.780;2022-07-04T12:34:44;30.50;91.60
13346;DHT22;6742;48.036;15.780;2022-07-04T12:37:12;30.40;92.50
13346;DHT22;6742;48.036;15.780;2022-07-04T12:39:44;30.40;93.70
13346;DHT22;6742;48.036;15.780;2022-07-04T12:42:15;30.10;95.60
13346;DHT22;6742;48.036;15.780;2022-07-04T12:44:43;29.90;92.70
13346;DHT22;6742;48.036;15.780;2022-07-04T12:47:11;29.80;94.40
13346;DHT22;6742;48.036;15.780;2022-07-04T12:49:43;29.80;93.70
13346;DHT22;6742;48.036;15.780;2022-07-04T12:52:12;29.90;94.60
13346;DHT22;6742;48.036;15.780;2022-07-04T12:54:40;29.90;94.40
13346;DHT22;6742;48.036;15.780;2022-07-04T12:57:13;29.90;94.60
13346;DHT22;6742;48.036;15.780;2022-07-04T12:59:41;29.90;94.90
13346;DHT22;6742;48.036;15.780;2022-07-04T13:02:09;29.80;92.70
13346;DHT22;6742;48.036;15.780;2022-07-04T13:04:41;29.70;92.40
13346;DHT22;6742;48.036;15.780;2022-07-04T13:07:15;29.50;92.20
13346;DHT22;6742;48.036;15.780;2022-07-04T13:09:43;29.30;92.50
13346;DHT22;6742;48.036;15.780;2022-07-04T13:12:14;29.40;90.80
13346;DHT22;6742;48.036;15.780;2022-07-04T13:14:56;29.40;92.10
13346;DHT22;6742;48.036;15.780;2022-07-04T13:17:25;29.40;92.90
13346;DHT22;6742;48.036;15.780;2022-07-04T13:19:55;29.30;92.70
13346;DHT22;6742;48.036;15.780;2022-07-04T13:22:23;29.00;92.30
13346;DHT22;6742;48.036;15.780;2022-07-04T13:24:50;28.80;93.00
13346;DHT22;6742;48.036;15.780;2022-07-04T13:27:19;28.70;92.80
13346;DHT22;6742;48.036;15.780;2022-07-04T13:29:46;28.70;93.40
13346;DHT22;6742;48.036;15.780;2022-07-04T13:32:13;28.60;92.70
13346;DHT22;6742;48.036;15.780;2022-07-04T13:34:40;28.60;92.90
13346;DHT22;6742;48.036;15.780;2022-07-04T13:37:07;28.60;93.90
13346;DHT22;6742;48.036;15.780;2022-07-04T13:39:34;28.50;92.60
13346;DHT22;6742;48.036;15.780;2022-07-04T13:42:01;28.50;91.90
13346;DHT22;6742;48.036;15.780;2022-07-04T13:44:30;28.40;91.80
13346;DHT22;6742;48.036;15.780;2022-07-04T13:46:57;28.40;92.50
13346;DHT22;6742;48.036;15.780;2022-07-04T13:49:25;28.40;92.40
13346;DHT22;6742;48.036;15.780;2022-07-04T13:51:52;28.40;93.20
13346;DHT22;6742;48.036;15.780;2022-07-04T13:54:19;28.30;92.20
13346;DHT22;6742;48.036;15.780;2022-07-04T13:56:46;28.40;92.60
13346;DHT22;6742;48.036;15.780;2022-07-04T13:59:13;28.40;92.90
13346;DHT22;6742;48.036;15.780;2022-07-04T14:01:41;28.50;92.70
13346;DHT22;6742;48.036;15.780;2022-07-04T14:04:08;28.40;93.40
13346;DHT22;6742;48.036;15.780;2022-07-04T14:06:35;28.40;91.80
13346;DHT22;6742;48.036;15.780;2022-07-04T14:09:02;28.20;91.10
13346;DHT22;6742;48.036;15.780;2022-07-04T14:11:29;28.10;92.30
13346;DHT22;6742;48.036;15.780;2022-07-04T14:13:57;28.00;91.70
13346;DHT22;6742;48.036;15.780;2022-07-04T14:16:27;27.80;93.30
13346;DHT22;6742;48.036;15.780;2022-07-04T14:18:55;27.80;92.00
13346;DHT22;6742;48.036;15.780;2022-07-04T14:21:22;27.80;93.60
13346;DHT22;6742;48.036;15.780;2022-07-04T14:23:49;27.70;94.20
13346;DHT22;6742;48.036;15.780;2022-07-04T14:26:18;27.60;92.80
13346;DHT22;6742;48.036;15.780;2022-07-04T14:28:46;27.60;93.80
13346;DHT22;6742;48.036;15.780;2022-07-04T14:31:13;27.40;95.20
13346;DHT22;6742;48.036;15.780;2022-07-04T14:33:40;27.30;94.50
13346;DHT22;6742;48.036;15.780;2022-07-04T14:36:10;27.20;95.50
13346;DHT22;6742;48.036;15.780;2022-07-04T14:38:40;27.10;95.20
13346;DHT22;6742;48.036;15.780;2022-07-04T14:41:07;27.00;95.40
13346;DHT22;6742;48.036;15.780;2022-07-04T14:43:41;27.00;96.00
13346;DHT22;6742;48.036;15.780;2022-07-04T14:46:09;27.00;95.40
13346;DHT22;6742;48.036;15.780;2022-07-04T14:48:40;27.00;95.40
13346;DHT22;6742;48.036;15.780;2022-07-04T14:51:08;26.80;95.70
13346;DHT22;6742;48.036;15.780;2022-07-04T14:53:35;26.80;95.30
13346;DHT22;6742;48.036;15.780;2022-07-04T14:56:02;26.70;95.80
13346;DHT22;6742;48.036;15.780;2022-07-04T14:58:30;26.70;95.80
13346;DHT22;6742;48.036;15.780;2022-07-04T15:00:57;26.50;96.10
13346;DHT22;6742;48.036;15.780;2022-07-04T15:03:24;26.30;95.80
13346;DHT22;6742;48.036;15.780;2022-07-04T15:05:54;26.20;96.30
13346;DHT22;6742;48.036;15.780;2022-07-04T15:08:22;26.00;95.70
13346;DHT22;6742;48.036;15.780;2022-07-04T15:10:49;26.00;96.50
13346;DHT22;6742;48.036;15.780;2022-07-04T15:13:16;25.90;95.60
13346;DHT22;6742;48.036;15.780;2022-07-04T15:15:44;25.70;96.60
13346;DHT22;6742;48.036;15.780;2022-07-04T15:18:11;25.50;96.40
13346;DHT22;6742;48.036;15.780;2022-07-04T15:20:38;25.30;97.40
13346;DHT22;6742;48.036;15.780;2022-07-04T15:23:27;25.20;99.30
13346;DHT22;6742;48.036;15.780;2022-07-04T15:26:11;25.10;99.90
13346;DHT22;6742;48.036;15.780;2022-07-04T15:28:38;24.90;99.90
13346;DHT22;6742;48.036;15.780;2022-07-04T15:31:06;24.60;99.90
13346;DHT22;6742;48.036;15.780;2022-07-04T15:33:33;24.50;99.90
13346;DHT22;6742;48.036;15.780;2022-07-04T15:36:09;24.40;99.90
13346;DHT22;6742;48.036;15.780;2022-07-04T15:38:42;24.30;99.90
13346;DHT22;6742;48.036;15.780;2022-07-04T15:43:44;24.20;99.90
13346;DHT22;6742;48.036;15.780;2022-07-04T15:46:14;24.20;99.90
13346;DHT22;6742;48.036;15.780;2022-07-04T15:48:41;24.10;99.90